createdAt,value
2023-03-21T00:01:58.886Z,7.81
2023-03-21T00:04:28.414Z,7.81
2023-03-21T00:06:56.391Z,7.81
2023-03-21T00:09:23.304Z,7.79
2023-03-21T00:11:49.860Z,7.86
2023-03-21T00:14:18.762Z,7.83
2023-03-21T00:16:50.656Z,7.83
2023-03-21T00:19:19.242Z,7.80
2023-03-21T00:21:59.599Z,7.79
2023-03-21T00:24:32.099Z,7.72
2023-03-21T00:27:10.751Z,7.72
2023-03-21T00:29:44.871Z,7.71
2023-03-21T00:32:11.428Z,7.71
2023-03-21T00:34:43.314Z,7.64
2023-03-21T00:37:17.363Z,7.67
2023-03-21T00:39:47.617Z,7.66
2023-03-21T00:42:14.229Z,7.64
2023-03-21T00:44:41.730Z,7.59
2023-03-21T00:47:08.319Z,7.61
2023-03-21T00:49:34.846Z,7.61
2023-03-21T00:52:14.569Z,7.59
2023-03-21T00:54:43.515Z,7.60
2023-03-21T00:57:09.888Z,7.63
2023-03-21T00:59:36.379Z,7.64
2023-03-21T01:02:07.177Z,7.65
2023-03-21T01:04:34.210Z,7.61
2023-03-21T01:07:00.610Z,7.64
2023-03-21T01:09:27.124Z,7.58
2023-03-21T01:11:53.640Z,7.60
2023-03-21T01:14:23.591Z,7.53
2023-03-21T01:16:53.513Z,7.53
2023-03-21T01:19:27.626Z,7.54
2023-03-21T01:21:56.055Z,7.57
2023-03-21T01:24:22.610Z,7.60
2023-03-21T01:26:48.992Z,7.61
2023-03-21T01:29:15.619Z,7.57
2023-03-21T01:31:42.155Z,7.56
2023-03-21T01:34:08.799Z,7.59
2023-03-21T01:36:35.333Z,7.59
2023-03-21T01:39:01.758Z,7.60
2023-03-21T01:41:42.109Z,7.64
2023-03-21T01:44:18.997Z,7.64
2023-03-21T01:46:54.535Z,7.67
2023-03-21T01:49:34.418Z,7.63
2023-03-21T01:52:10.167Z,7.59
2023-03-21T01:54:39.022Z,7.57
2023-03-21T01:57:11.607Z,7.58
2023-03-21T01:59:41.065Z,7.58
2023-03-21T02:02:09.972Z,7.57
2023-03-21T02:04:36.437Z,7.54
2023-03-21T02:07:17.734Z,7.57
2023-03-21T02:09:47.225Z,7.60
2023-03-21T02:12:13.563Z,7.62
2023-03-21T02:14:39.988Z,7.60
2023-03-21T02:17:21.518Z,7.61
2023-03-21T02:20:08.757Z,7.61
2023-03-21T02:23:16.206Z,7.61
2023-03-21T02:25:54.850Z,7.62
2023-03-21T02:28:59.814Z,7.60
2023-03-21T02:31:33.620Z,7.59
2023-03-21T02:34:09.479Z,7.58
2023-03-21T02:37:08.597Z,7.54
2023-03-21T02:39:59.872Z,7.56
2023-03-21T02:42:26.401Z,7.58
2023-03-21T02:45:03.277Z,7.56
2023-03-21T02:47:44.415Z,7.59
2023-03-21T02:50:24.671Z,7.57
2023-03-21T02:52:51.044Z,7.59
2023-03-21T02:55:20.453Z,7.57
2023-03-21T02:57:47.229Z,7.59
2023-03-21T03:00:17.844Z,7.61
2023-03-21T03:02:44.878Z,7.59
2023-03-21T03:05:21.219Z,7.62
2023-03-21T03:08:22.101Z,7.64
2023-03-21T03:10:53.121Z,7.64
2023-03-21T03:13:38.556Z,7.64
2023-03-21T03:16:18.486Z,7.68
2023-03-21T03:18:49.875Z,7.67
2023-03-21T03:21:35.232Z,7.63
2023-03-21T03:24:07.116Z,7.68
2023-03-21T03:26:39.551Z,7.73
2023-03-21T03:29:11.857Z,7.71
2023-03-21T03:31:40.847Z,7.73
2023-03-21T03:34:13.143Z,7.73
2023-03-21T03:36:42.277Z,7.74
2023-03-21T03:39:10.677Z,7.72
2023-03-21T03:42:15.546Z,7.76
2023-03-21T03:44:51.598Z,7.76
2023-03-21T03:47:55.999Z,7.74
2023-03-21T03:50:41.542Z,7.75
2023-03-21T03:53:21.144Z,7.77
2023-03-21T03:55:47.520Z,7.76
2023-03-21T03:58:22.831Z,7.74
2023-03-21T04:00:50.925Z,7.77
2023-03-21T04:03:18.610Z,7.77
2023-03-21T04:05:48.000Z,7.79
2023-03-21T04:08:15.357Z,7.83
2023-03-21T04:10:42.568Z,7.86
2023-03-21T04:13:09.060Z,7.88
2023-03-21T04:15:35.864Z,7.89
2023-03-21T04:18:02.260Z,7.91
2023-03-21T04:20:36.469Z,7.83
2023-03-21T04:23:03.178Z,7.89
2023-03-21T04:25:33.880Z,7.87
2023-03-21T04:28:00.756Z,7.89
2023-03-21T04:30:27.156Z,7.89
2023-03-21T04:32:56.975Z,7.88
2023-03-21T04:35:23.838Z,7.90
2023-03-21T04:37:50.632Z,7.93
2023-03-21T04:40:19.085Z,7.93
2023-03-21T04:42:46.635Z,7.91
2023-03-21T04:45:13.983Z,7.90
2023-03-21T04:47:41.142Z,7.90
2023-03-21T04:50:08.263Z,7.94
2023-03-21T04:52:34.918Z,7.94
2023-03-21T04:55:02.042Z,7.95
2023-03-21T04:57:28.583Z,7.98
2023-03-21T04:59:54.949Z,7.97
2023-03-21T05:02:21.488Z,7.96
2023-03-21T05:04:47.827Z,7.96
2023-03-21T05:07:14.209Z,7.98
2023-03-21T05:09:40.616Z,7.99
2023-03-21T05:12:07.246Z,8.00
2023-03-21T05:14:33.619Z,7.99
2023-03-21T05:17:01.842Z,7.99
2023-03-21T05:19:35.989Z,7.98
2023-03-21T05:22:09.713Z,7.99
2023-03-21T05:24:39.172Z,7.99
2023-03-21T05:27:05.672Z,8.00
2023-03-21T05:29:32.678Z,7.98
2023-03-21T05:31:59.347Z,7.98
2023-03-21T05:34:27.225Z,7.98
2023-03-21T05:36:53.921Z,7.98
2023-03-21T05:39:20.509Z,7.98
2023-03-21T05:41:46.898Z,7.99
2023-03-21T05:44:13.456Z,7.99
2023-03-21T05:46:39.848Z,7.98
2023-03-21T05:49:06.460Z,8.01
2023-03-21T05:51:32.811Z,8.03
2023-03-21T05:53:59.233Z,8.04
2023-03-21T05:56:25.588Z,8.02
2023-03-21T05:58:51.978Z,8.02
2023-03-21T06:01:18.770Z,8.05
2023-03-21T06:03:46.441Z,8.04
2023-03-21T06:06:13.017Z,8.05
2023-03-21T06:08:39.455Z,8.11
2023-03-21T06:11:06.512Z,8.11
2023-03-21T06:13:32.983Z,8.12
2023-03-21T06:15:59.420Z,8.17
2023-03-21T06:18:25.998Z,8.21
2023-03-21T06:20:52.367Z,8.22
2023-03-21T06:23:18.923Z,8.22
2023-03-21T06:25:45.270Z,8.24
2023-03-21T06:28:11.820Z,8.29
2023-03-21T06:30:38.149Z,8.32
2023-03-21T06:33:04.502Z,8.30
2023-03-21T06:35:31.066Z,8.33
2023-03-21T06:37:59.064Z,8.34
2023-03-21T06:40:25.490Z,8.39
2023-03-21T06:42:51.950Z,8.43
2023-03-21T06:45:18.344Z,8.46
2023-03-21T06:47:45.318Z,8.47
2023-03-21T06:50:11.818Z,8.51
2023-03-21T06:52:38.250Z,8.56
2023-03-21T06:55:04.925Z,8.58
2023-03-21T06:57:31.325Z,8.58
2023-03-21T06:59:57.665Z,8.63
2023-03-21T07:02:24.070Z,8.61
2023-03-21T07:04:50.873Z,8.62
2023-03-21T07:07:17.270Z,8.66
2023-03-21T07:09:43.873Z,8.69
2023-03-21T07:12:11.090Z,8.67
2023-03-21T07:14:37.510Z,8.73
2023-03-21T07:17:03.905Z,8.77
2023-03-21T07:19:30.792Z,8.80
2023-03-21T07:21:57.373Z,8.86
2023-03-21T07:24:23.733Z,8.87
2023-03-21T07:26:50.099Z,8.94
2023-03-21T07:29:17.611Z,8.98
2023-03-21T07:31:44.015Z,9.02
2023-03-21T07:34:10.453Z,9.02
2023-03-21T07:36:36.887Z,9.04
2023-03-21T07:39:04.339Z,9.10
2023-03-21T07:41:30.950Z,9.10
2023-03-21T07:43:57.970Z,9.13
2023-03-21T07:46:24.526Z,9.14
2023-03-21T07:48:51.012Z,9.15
2023-03-21T07:51:17.377Z,9.15
2023-03-21T07:53:48.309Z,9.14
2023-03-21T07:56:15.815Z,9.17
2023-03-21T07:58:42.156Z,9.21
2023-03-21T08:01:08.564Z,9.23
2023-03-21T08:03:34.988Z,9.28
2023-03-21T08:06:01.533Z,9.32
2023-03-21T08:08:27.960Z,9.35
2023-03-21T08:10:54.332Z,9.37
2023-03-21T08:13:20.815Z,9.39
2023-03-21T08:15:47.212Z,9.37
2023-03-21T08:18:13.618Z,9.40
2023-03-21T08:20:39.980Z,9.42
2023-03-21T08:23:06.373Z,9.37
2023-03-21T08:25:33.162Z,9.36
2023-03-21T08:27:59.602Z,9.38
2023-03-21T08:30:26.938Z,9.42
2023-03-21T08:33:00.539Z,9.45
2023-03-21T08:35:27.537Z,9.51
2023-03-21T08:37:53.950Z,9.57
2023-03-21T08:40:20.698Z,9.63
2023-03-21T08:42:47.126Z,9.70
2023-03-21T08:45:13.992Z,9.80
2023-03-21T08:47:40.608Z,9.86
2023-03-21T08:50:08.021Z,9.96
2023-03-21T08:52:34.446Z,10.07
2023-03-21T08:55:02.198Z,10.17
2023-03-21T08:57:29.248Z,10.19
2023-03-21T08:59:55.729Z,10.25
2023-03-21T09:02:22.302Z,10.24
2023-03-21T09:04:48.743Z,10.33
2023-03-21T09:07:17.988Z,10.29
2023-03-21T09:09:45.917Z,10.33
2023-03-21T09:12:14.133Z,10.39
2023-03-21T09:14:41.102Z,10.38
2023-03-21T09:17:07.660Z,10.42
2023-03-21T09:19:35.078Z,10.49
2023-03-21T09:22:02.559Z,10.49
2023-03-21T09:24:28.910Z,10.43
2023-03-21T09:26:55.327Z,10.50
2023-03-21T09:29:23.126Z,10.55
2023-03-21T09:31:49.695Z,10.57
2023-03-21T09:34:16.334Z,10.60
2023-03-21T09:36:44.158Z,10.61
2023-03-21T09:39:11.742Z,10.56
2023-03-21T09:41:47.856Z,10.58
2023-03-21T09:44:14.624Z,10.54
2023-03-21T09:46:41.543Z,10.59
2023-03-21T09:49:40.798Z,10.65
2023-03-21T09:52:13.787Z,10.62
2023-03-21T09:54:42.925Z,10.56
2023-03-21T09:57:34.780Z,10.55
2023-03-21T10:00:16.733Z,10.56
2023-03-21T10:02:49.488Z,10.52
2023-03-21T10:05:18.976Z,10.57
2023-03-21T10:08:11.426Z,10.66
2023-03-21T10:10:41.609Z,10.74
2023-03-21T10:13:19.476Z,10.82
2023-03-21T10:15:45.836Z,10.95
2023-03-21T10:18:22.264Z,11.00
2023-03-21T10:20:49.752Z,10.98
2023-03-21T10:23:16.697Z,11.00
2023-03-21T10:25:56.103Z,11.02
2023-03-21T10:28:24.691Z,11.07
2023-03-21T10:30:51.634Z,10.96
2023-03-21T10:33:20.759Z,10.94
2023-03-21T10:35:50.783Z,10.93
2023-03-21T10:38:19.045Z,11.01
2023-03-21T10:40:45.560Z,11.05
2023-03-21T10:43:16.284Z,11.11
2023-03-21T10:45:48.293Z,11.23
2023-03-21T10:48:15.056Z,11.28
2023-03-21T10:50:42.284Z,11.27
2023-03-21T10:53:21.005Z,11.34
2023-03-21T10:55:49.259Z,11.39
2023-03-21T10:58:18.851Z,11.53
2023-03-21T11:00:46.345Z,11.60
2023-03-21T11:03:21.288Z,11.80
2023-03-21T11:05:47.626Z,12.04
2023-03-21T11:08:15.666Z,12.11
2023-03-21T11:11:08.134Z,12.09
2023-03-21T11:13:42.527Z,12.15
2023-03-21T11:16:18.511Z,12.17
2023-03-21T11:18:49.415Z,12.15
2023-03-21T11:21:16.321Z,12.18
2023-03-21T11:23:45.397Z,12.08
2023-03-21T11:26:16.587Z,12.07
2023-03-21T11:28:44.810Z,12.03
2023-03-21T11:31:11.415Z,12.05
2023-03-21T11:34:06.141Z,12.01
2023-03-21T11:36:34.125Z,12.03
2023-03-21T11:39:13.779Z,12.04
2023-03-21T11:41:41.135Z,12.02
2023-03-21T11:44:23.506Z,12.03
2023-03-21T11:46:49.863Z,12.01
2023-03-21T11:49:16.218Z,11.99
2023-03-21T11:52:03.961Z,12.01
2023-03-21T11:54:43.399Z,12.04
2023-03-21T11:57:22.641Z,12.08
2023-03-21T12:00:14.419Z,12.05
2023-03-21T12:03:19.345Z,11.93
2023-03-21T12:05:54.670Z,11.89
2023-03-21T12:08:31.784Z,11.89
2023-03-21T12:11:13.385Z,11.89
2023-03-21T12:13:51.975Z,11.82
2023-03-21T12:16:41.291Z,11.68
2023-03-21T12:19:22.934Z,11.63
2023-03-21T12:21:54.979Z,11.65
2023-03-21T12:24:46.420Z,11.71
2023-03-21T12:27:28.014Z,11.77
2023-03-21T12:30:19.300Z,11.81
2023-03-21T12:32:52.199Z,11.83
2023-03-21T12:35:51.261Z,11.88
2023-03-21T12:38:32.517Z,11.89
2023-03-21T12:41:17.889Z,11.98
2023-03-21T12:44:00.813Z,11.94
2023-03-21T12:46:34.021Z,11.93
2023-03-21T12:49:25.775Z,11.89
2023-03-21T12:52:05.592Z,11.84
2023-03-21T12:54:36.508Z,11.77
2023-03-21T12:57:11.749Z,11.76
2023-03-21T12:59:39.863Z,11.69
2023-03-21T13:02:29.006Z,11.61
2023-03-21T13:04:59.494Z,11.60
2023-03-21T13:07:27.566Z,11.57
2023-03-21T13:09:55.470Z,11.49
2023-03-21T13:12:37.737Z,11.47
2023-03-21T13:15:44.457Z,11.45
2023-03-21T13:18:16.956Z,11.41
2023-03-21T13:20:57.130Z,11.32
2023-03-21T13:23:34.176Z,11.32
2023-03-21T13:26:00.846Z,11.28
2023-03-21T13:28:28.692Z,11.28
2023-03-21T13:31:19.132Z,11.22
2023-03-21T13:33:47.944Z,11.17
2023-03-21T13:36:16.116Z,11.19
2023-03-21T13:38:43.212Z,11.16
2023-03-21T13:41:32.724Z,11.14
2023-03-21T13:44:02.164Z,11.12
2023-03-21T13:46:28.591Z,11.12
2023-03-21T13:48:59.177Z,11.10
2023-03-21T13:51:29.460Z,11.09
2023-03-21T13:54:15.593Z,11.08
2023-03-21T13:56:45.968Z,11.04
2023-03-21T13:59:13.563Z,11.06
2023-03-21T14:01:41.646Z,11.04
2023-03-21T14:04:31.362Z,11.08
2023-03-21T14:07:20.170Z,11.09
2023-03-21T14:09:48.233Z,11.08
2023-03-21T14:12:17.383Z,11.08
2023-03-21T14:14:46.405Z,11.05
2023-03-21T14:17:29.254Z,11.07
2023-03-21T14:20:18.869Z,11.07
2023-03-21T14:22:47.119Z,11.12
2023-03-21T14:25:14.250Z,11.04
2023-03-21T14:27:42.801Z,11.03
2023-03-21T14:30:12.352Z,11.06
2023-03-21T14:32:39.350Z,11.07
2023-03-21T14:35:09.551Z,11.07
2023-03-21T14:37:41.536Z,11.05
2023-03-21T14:43:06.053Z,10.98
2023-03-21T14:45:34.471Z,10.96
2023-03-21T14:48:01.661Z,10.95
2023-03-21T14:50:48.098Z,10.96
2023-03-21T14:53:26.240Z,10.93
2023-03-21T14:56:16.970Z,10.93
2023-03-21T14:58:44.917Z,10.90
2023-03-21T15:01:17.242Z,10.88
2023-03-21T15:03:47.550Z,10.90
2023-03-21T15:06:14.067Z,10.92
2023-03-21T15:08:40.475Z,10.86
2023-03-21T15:11:08.839Z,10.81
2023-03-21T15:13:52.843Z,10.80
2023-03-21T15:16:19.301Z,10.78
2023-03-21T15:18:45.812Z,10.76
2023-03-21T15:21:20.388Z,10.71
2023-03-21T15:23:46.937Z,10.73
2023-03-21T15:26:15.589Z,10.69
2023-03-21T15:28:41.969Z,10.71
2023-03-21T15:31:17.531Z,10.68
2023-03-21T15:33:51.578Z,10.65
2023-03-21T15:36:22.591Z,10.63
2023-03-21T15:38:49.044Z,10.62
2023-03-21T15:41:21.501Z,10.64
2023-03-21T15:43:48.262Z,10.65
2023-03-21T15:46:30.671Z,10.64
2023-03-21T15:49:12.793Z,10.61
2023-03-21T15:51:40.988Z,10.58
2023-03-21T15:54:13.817Z,10.58
2023-03-21T15:56:42.425Z,10.59
2023-03-21T15:59:12.751Z,10.62
2023-03-21T16:01:39.283Z,10.62
2023-03-21T16:04:08.342Z,10.62
2023-03-21T16:06:36.500Z,10.63
2023-03-21T16:09:09.289Z,10.63
2023-03-21T16:11:43.042Z,10.62
2023-03-21T16:14:09.573Z,10.60
2023-03-21T16:16:36.020Z,10.62
2023-03-21T16:19:02.778Z,10.64
2023-03-21T16:21:30.577Z,10.62
2023-03-21T16:23:58.131Z,10.64
2023-03-21T16:26:29.460Z,10.62
2023-03-21T16:28:55.976Z,10.63
2023-03-21T16:31:24.507Z,10.64
2023-03-21T16:33:51.279Z,10.59
2023-03-21T16:36:25.609Z,10.57
2023-03-21T16:38:55.051Z,10.60
2023-03-21T16:41:22.386Z,10.61
2023-03-21T16:43:48.930Z,10.59
2023-03-21T16:46:16.658Z,10.57
2023-03-21T16:48:44.520Z,10.57
2023-03-21T16:53:48.868Z,10.54
2023-03-21T16:56:23.589Z,10.53
2023-03-21T16:58:50.092Z,10.53
2023-03-21T17:01:25.766Z,10.53
2023-03-21T17:03:52.313Z,10.50
2023-03-21T17:06:20.790Z,10.44
2023-03-21T17:08:47.273Z,10.45
2023-03-21T17:11:19.931Z,10.43
2023-03-21T17:13:47.294Z,10.43
2023-03-21T17:16:15.096Z,10.42
2023-03-21T17:18:41.618Z,10.41
2023-03-21T17:21:12.088Z,10.40
2023-03-21T17:23:38.449Z,10.40
2023-03-21T17:26:04.969Z,10.36
2023-03-21T17:28:31.401Z,10.34
2023-03-21T17:30:57.753Z,10.35
2023-03-21T17:33:24.124Z,10.40
2023-03-21T17:35:50.690Z,10.40
2023-03-21T17:38:17.537Z,10.39
2023-03-21T17:40:43.882Z,10.39
2023-03-21T17:43:14.790Z,10.39
2023-03-21T17:45:41.316Z,10.37
2023-03-21T17:48:07.694Z,10.36
2023-03-21T17:50:34.670Z,10.35
2023-03-21T17:53:01.221Z,10.35
2023-03-21T17:55:27.607Z,10.38
2023-03-21T17:57:53.984Z,10.38
2023-03-21T18:00:26.332Z,10.39
2023-03-21T18:02:52.910Z,10.39
2023-03-21T18:05:21.240Z,10.38
2023-03-21T18:08:09.899Z,10.39
2023-03-21T18:10:34.262Z,10.43
2023-03-21T18:13:00.687Z,10.43
2023-03-21T18:15:30.236Z,10.42
2023-03-21T18:17:57.140Z,10.42
2023-03-21T18:20:24.456Z,10.39
2023-03-21T18:22:51.961Z,10.37
2023-03-21T18:25:18.586Z,10.34
2023-03-21T18:28:09.165Z,10.36
2023-03-21T18:30:53.030Z,10.37
2023-03-21T18:33:18.284Z,10.36
2023-03-21T18:35:46.323Z,10.36
2023-03-21T18:38:12.821Z,10.34
2023-03-21T18:40:40.785Z,10.30
2023-03-21T18:45:53.878Z,10.29
2023-03-21T18:48:20.435Z,10.27
2023-03-21T18:50:47.339Z,10.26
2023-03-21T18:53:14.054Z,10.26
2023-03-21T18:55:45.988Z,10.25
2023-03-21T18:58:13.156Z,10.22
2023-03-21T19:00:40.404Z,10.22
2023-03-21T19:03:19.115Z,10.21
2023-03-21T19:05:58.298Z,10.18
2023-03-21T19:08:24.658Z,10.19
2023-03-21T19:10:52.004Z,10.20
2023-03-21T19:13:18.450Z,10.20
2023-03-21T19:15:45.800Z,10.18
2023-03-21T19:18:37.668Z,10.17
2023-03-21T19:21:01.233Z,10.20
2023-03-21T19:23:39.891Z,10.21
2023-03-21T19:26:10.080Z,10.22
2023-03-21T19:28:36.472Z,10.23
2023-03-21T19:31:06.741Z,10.24
2023-03-21T19:33:33.462Z,10.21
2023-03-21T19:36:13.051Z,10.22
2023-03-21T19:38:42.409Z,10.22
2023-03-21T19:41:08.752Z,10.19
2023-03-21T19:43:35.168Z,10.20
2023-03-21T19:46:01.792Z,10.20
2023-03-21T19:48:28.395Z,10.20
2023-03-21T19:51:26.401Z,10.20
2023-03-21T19:53:41.260Z,10.19
2023-03-21T19:56:20.332Z,10.18
2023-03-21T19:58:48.490Z,10.18
2023-03-21T20:01:15.823Z,10.17
2023-03-21T20:03:44.148Z,10.15
2023-03-21T20:06:11.419Z,10.13
2023-03-21T20:09:05.296Z,10.12
2023-03-21T20:11:24.199Z,10.13
2023-03-21T20:13:50.655Z,10.12
2023-03-21T20:16:18.246Z,10.11
2023-03-21T20:18:45.422Z,10.07
2023-03-21T20:21:17.567Z,10.07
2023-03-21T20:23:49.149Z,10.07
2023-03-21T20:26:16.255Z,10.06
2023-03-21T20:28:56.043Z,10.07
2023-03-21T20:31:29.345Z,10.06
2023-03-21T20:33:56.084Z,10.05
2023-03-21T20:36:41.351Z,10.04
2023-03-21T20:39:09.554Z,10.03
2023-03-21T20:41:35.982Z,10.03
2023-03-21T20:46:48.923Z,10.01
2023-03-21T20:49:15.539Z,9.99
2023-03-21T20:54:29.572Z,9.95
2023-03-21T20:56:56.716Z,9.94
2023-03-21T20:59:27.141Z,9.93
2023-03-21T21:01:55.736Z,9.91
2023-03-21T21:04:23.118Z,9.92
2023-03-21T21:06:53.938Z,9.90
2023-03-21T21:09:20.792Z,9.90
2023-03-21T21:14:35.746Z,9.89
2023-03-21T21:17:17.055Z,9.85
2023-03-21T21:19:52.333Z,9.83
2023-03-21T21:22:18.765Z,9.82
2023-03-21T21:24:45.246Z,9.79
2023-03-21T21:27:11.970Z,9.78
2023-03-21T21:29:38.462Z,9.74
2023-03-21T21:32:05.212Z,9.72
2023-03-21T21:34:31.714Z,9.68
2023-03-21T21:36:58.163Z,9.67
2023-03-21T21:39:26.386Z,9.62
2023-03-21T21:41:52.815Z,9.55
2023-03-21T21:44:19.604Z,9.55
2023-03-21T21:46:46.252Z,9.51
2023-03-21T21:49:12.657Z,9.45
2023-03-21T21:51:41.073Z,9.44
2023-03-21T21:54:07.440Z,9.46
2023-03-21T21:56:38.377Z,9.40
2023-03-21T21:59:05.457Z,9.38
2023-03-21T22:01:34.516Z,9.35
2023-03-21T22:04:07.945Z,9.33
2023-03-21T22:06:34.467Z,9.29
2023-03-21T22:09:01.014Z,9.29
2023-03-21T22:11:27.432Z,9.26
2023-03-21T22:13:53.782Z,9.24
2023-03-21T22:16:20.532Z,9.24
2023-03-21T22:18:46.893Z,9.21
2023-03-21T22:21:13.415Z,9.14
2023-03-21T22:23:41.342Z,9.10
2023-03-21T22:26:08.090Z,9.10
2023-03-21T22:28:34.559Z,9.13
2023-03-21T22:31:10.742Z,9.12
2023-03-21T22:33:37.315Z,9.13
2023-03-21T22:36:03.905Z,9.12
2023-03-21T22:38:30.433Z,9.11
2023-03-21T22:40:57.705Z,9.13
2023-03-21T22:43:24.331Z,9.14
2023-03-21T22:45:50.813Z,9.10
2023-03-21T22:48:17.253Z,9.10
2023-03-21T22:50:43.847Z,9.11
2023-03-21T22:53:10.187Z,9.09
2023-03-21T22:55:36.802Z,9.06
2023-03-21T22:58:03.269Z,9.03
2023-03-21T23:00:29.776Z,8.97
2023-03-21T23:02:57.136Z,8.94
2023-03-21T23:05:23.590Z,8.89
2023-03-21T23:07:49.926Z,8.84
2023-03-21T23:10:16.592Z,8.80
2023-03-21T23:12:42.977Z,8.77
2023-03-21T23:15:09.802Z,8.78
2023-03-21T23:17:36.367Z,8.74
2023-03-21T23:20:06.928Z,8.74
2023-03-21T23:22:33.970Z,8.78
2023-03-21T23:25:00.412Z,8.85
2023-03-21T23:27:26.765Z,8.87
2023-03-21T23:29:54.208Z,8.87
2023-03-21T23:32:20.700Z,8.92
2023-03-21T23:34:47.082Z,8.91
2023-03-21T23:37:13.430Z,8.87
2023-03-21T23:39:39.953Z,8.88
2023-03-21T23:42:09.419Z,8.90
2023-03-21T23:44:35.809Z,8.95
2023-03-21T23:47:02.386Z,8.93
2023-03-21T23:49:28.982Z,8.93
2023-03-21T23:51:55.403Z,8.90
2023-03-21T23:54:21.867Z,8.91
2023-03-21T23:56:48.481Z,8.92
2023-03-21T23:59:15.000Z,8.94
